createdAt,value
2019-01-20T00:00:19.871Z,83.99
2019-01-20T00:02:47.634Z,83.52
2019-01-20T00:05:15.956Z,83.12
2019-01-20T00:07:43.629Z,83.38
2019-01-20T00:10:11.469Z,83.40
2019-01-20T00:12:38.976Z,83.75
2019-01-20T00:15:07.272Z,83.42
2019-01-20T00:17:35.117Z,83.79
2019-01-20T00:20:03.802Z,84.10
2019-01-20T00:22:31.608Z,83.90
2019-01-20T00:24:59.175Z,84.22
2019-01-20T00:27:27.222Z,83.99
2019-01-20T00:29:55.331Z,84.46
2019-01-20T00:32:23.009Z,84.42
2019-01-20T00:34:50.570Z,84.07
2019-01-20T00:37:18.397Z,84.55
2019-01-20T00:39:45.999Z,84.34
2019-01-20T00:42:13.599Z,84.33
2019-01-20T00:44:41.536Z,84.35
2019-01-20T00:47:09.373Z,84.03
2019-01-20T00:49:37.292Z,84.23
2019-01-20T00:52:05.070Z,83.78
2019-01-20T00:54:32.737Z,83.97
2019-01-20T00:57:00.053Z,83.85
2019-01-20T00:59:27.611Z,84.08
2019-01-20T01:01:54.961Z,84.27
2019-01-20T01:04:22.416Z,84.38
2019-01-20T01:06:50.067Z,83.90
2019-01-20T01:09:17.734Z,83.91
2019-01-20T01:11:45.134Z,84.31
2019-01-20T01:14:12.934Z,84.03
2019-01-20T01:16:40.570Z,84.00
2019-01-20T01:19:08.625Z,84.25
2019-01-20T01:21:39.867Z,84.23
2019-01-20T01:24:07.890Z,84.13
2019-01-20T01:26:36.829Z,84.10
2019-01-20T01:29:04.452Z,83.94
2019-01-20T01:31:32.409Z,83.71
2019-01-20T01:33:59.800Z,84.05
2019-01-20T01:36:27.063Z,83.70
2019-01-20T01:38:55.264Z,83.71
2019-01-20T01:41:22.747Z,84.12
2019-01-20T01:43:50.246Z,83.92
2019-01-20T01:46:17.631Z,83.68
2019-01-20T01:48:45.791Z,83.71
2019-01-20T01:51:13.749Z,83.86
2019-01-20T01:53:41.119Z,83.78
2019-01-20T01:56:08.587Z,83.68
2019-01-20T01:58:35.716Z,84.01
2019-01-20T02:01:04.012Z,83.59
2019-01-20T02:03:31.636Z,84.13
2019-01-20T02:05:59.314Z,83.81
2019-01-20T02:08:27.374Z,84.10
2019-01-20T02:10:55.035Z,84.52
2019-01-20T02:13:23.464Z,84.53
2019-01-20T02:15:51.612Z,84.26
2019-01-20T02:18:19.244Z,83.60
2019-01-20T02:20:46.719Z,84.13
2019-01-20T02:23:14.209Z,84.41
2019-01-20T02:25:45.577Z,84.53
2019-01-20T02:28:12.962Z,84.62
2019-01-20T02:30:40.874Z,84.54
2019-01-20T02:33:08.876Z,84.71
2019-01-20T02:35:37.203Z,84.35
2019-01-20T02:38:05.010Z,84.95
2019-01-20T02:40:32.485Z,84.89
2019-01-20T02:42:59.730Z,84.71
2019-01-20T02:45:26.976Z,84.74
2019-01-20T02:47:54.364Z,84.93
2019-01-20T02:50:22.498Z,84.92
2019-01-20T02:52:50.548Z,84.87
2019-01-20T02:55:18.545Z,84.76
2019-01-20T02:57:46.615Z,84.65
2019-01-20T03:00:18.414Z,84.46
2019-01-20T03:02:46.010Z,84.69
2019-01-20T03:05:15.901Z,84.78
2019-01-20T03:07:43.270Z,84.33
2019-01-20T03:10:10.934Z,84.26
2019-01-20T03:12:38.967Z,84.54
2019-01-20T03:15:08.127Z,84.46
2019-01-20T03:17:36.089Z,84.48
2019-01-20T03:20:07.277Z,84.56
2019-01-20T03:22:35.220Z,84.34
2019-01-20T03:25:03.970Z,84.24
2019-01-20T03:27:31.448Z,84.44
2019-01-20T03:29:59.495Z,84.37
2019-01-20T03:32:26.764Z,84.37
2019-01-20T03:34:54.333Z,84.57
2019-01-20T03:37:21.997Z,84.52
2019-01-20T03:39:49.316Z,84.48
2019-01-20T03:42:16.506Z,84.25
2019-01-20T03:44:43.782Z,84.29
2019-01-20T03:47:11.403Z,84.13
2019-01-20T03:49:38.560Z,84.10
2019-01-20T03:52:06.432Z,84.04
2019-01-20T03:54:34.652Z,84.16
2019-01-20T03:57:02.416Z,83.73
2019-01-20T03:59:30.188Z,84.07
2019-01-20T04:01:57.462Z,83.96
2019-01-20T04:04:24.794Z,84.30
2019-01-20T04:06:52.205Z,84.01
2019-01-20T04:09:19.869Z,84.53
2019-01-20T04:11:50.513Z,84.22
2019-01-20T04:14:18.248Z,84.11
2019-01-20T04:16:45.779Z,84.70
2019-01-20T04:19:13.241Z,84.56
2019-01-20T04:21:40.825Z,84.35
2019-01-20T04:24:08.570Z,84.67
2019-01-20T04:26:36.954Z,84.02
2019-01-20T04:29:04.575Z,83.83
2019-01-20T04:31:32.835Z,84.13
2019-01-20T04:34:00.163Z,83.96
2019-01-20T04:36:28.173Z,84.15
2019-01-20T04:38:55.937Z,84.25
2019-01-20T04:41:23.309Z,84.18
2019-01-20T04:43:50.768Z,84.20
2019-01-20T04:46:18.271Z,83.92
2019-01-20T04:48:45.772Z,84.19
2019-01-20T04:51:13.254Z,84.09
2019-01-20T04:53:41.162Z,84.51
2019-01-20T04:56:09.213Z,84.56
2019-01-20T04:58:36.732Z,84.53
2019-01-20T05:01:04.493Z,84.31
2019-01-20T05:03:31.852Z,84.67
2019-01-20T05:05:59.242Z,84.72
2019-01-20T05:08:27.321Z,84.39
2019-01-20T05:10:55.306Z,84.26
2019-01-20T05:13:23.035Z,84.33
2019-01-20T05:15:54.443Z,84.42
2019-01-20T05:18:22.258Z,84.32
2019-01-20T05:20:49.918Z,84.27
2019-01-20T05:23:17.695Z,84.25
2019-01-20T05:25:45.074Z,84.14
2019-01-20T05:28:12.619Z,84.03
2019-01-20T05:30:40.961Z,84.50
2019-01-20T05:33:08.325Z,84.55
2019-01-20T05:35:35.627Z,84.11
2019-01-20T05:38:03.734Z,84.38
2019-01-20T05:40:31.063Z,84.49
2019-01-20T05:42:59.030Z,84.31
2019-01-20T05:45:26.464Z,84.23
2019-01-20T05:47:53.954Z,84.50
2019-01-20T05:50:21.653Z,84.21
2019-01-20T05:52:49.397Z,84.34
2019-01-20T05:55:16.840Z,84.32
2019-01-20T05:57:45.011Z,84.17
2019-01-20T06:00:38.405Z,84.46
2019-01-20T06:03:06.628Z,84.29
2019-01-20T06:05:34.711Z,84.53
2019-01-20T06:08:02.629Z,84.27
2019-01-20T06:10:30.389Z,84.48
2019-01-20T06:12:58.527Z,84.32
2019-01-20T06:15:26.337Z,84.71
2019-01-20T06:17:53.783Z,84.48
2019-01-20T06:20:22.567Z,84.22
2019-01-20T06:22:50.423Z,84.34
2019-01-20T06:25:18.357Z,84.52
2019-01-20T06:27:46.528Z,84.53
2019-01-20T06:30:18.109Z,84.31
2019-01-20T06:32:45.659Z,84.29
2019-01-20T06:35:13.925Z,84.39
2019-01-20T06:37:41.918Z,84.21
2019-01-20T06:40:09.543Z,84.47
2019-01-20T06:42:36.973Z,84.41
2019-01-20T06:45:05.657Z,84.78
2019-01-20T06:47:33.193Z,84.82
2019-01-20T06:50:00.468Z,84.96
2019-01-20T06:52:27.808Z,84.96
2019-01-20T06:54:55.473Z,84.78
2019-01-20T06:57:23.382Z,84.61
2019-01-20T06:59:51.440Z,84.67
2019-01-20T07:02:19.001Z,85.20
2019-01-20T07:04:46.680Z,84.56
2019-01-20T07:07:14.466Z,84.76
2019-01-20T07:09:42.479Z,84.45
2019-01-20T07:12:10.304Z,84.77
2019-01-20T07:14:37.498Z,84.94
2019-01-20T07:17:05.353Z,84.80
2019-01-20T07:19:33.063Z,85.19
2019-01-20T07:22:00.350Z,85.05
2019-01-20T07:24:27.694Z,84.77
2019-01-20T07:26:59.870Z,85.11
2019-01-20T07:29:30.780Z,84.59
2019-01-20T07:31:58.574Z,84.58
2019-01-20T07:34:27.524Z,85.32
2019-01-20T07:36:55.121Z,85.07
2019-01-20T07:39:23.480Z,84.89
2019-01-20T07:41:50.779Z,84.91
2019-01-20T07:44:20.499Z,84.89
2019-01-20T07:46:49.933Z,84.78
2019-01-20T07:49:17.221Z,85.00
2019-01-20T07:51:45.493Z,85.09
2019-01-20T07:54:13.067Z,84.98
2019-01-20T07:56:40.706Z,85.04
2019-01-20T07:59:08.311Z,85.05
2019-01-20T08:01:36.029Z,85.00
2019-01-20T08:04:03.756Z,85.25
2019-01-20T08:06:31.609Z,85.11
2019-01-20T08:08:58.994Z,85.40
2019-01-20T08:11:27.039Z,85.44
2019-01-20T08:13:54.822Z,85.67
2019-01-20T08:16:22.206Z,85.61
2019-01-20T08:18:50.310Z,85.62
2019-01-20T08:21:17.956Z,85.96
2019-01-20T08:23:45.955Z,85.67
2019-01-20T08:26:14.065Z,85.79
2019-01-20T08:28:42.779Z,85.28
2019-01-20T08:31:10.979Z,85.13
2019-01-20T08:33:39.451Z,85.48
2019-01-20T08:36:06.999Z,85.10
2019-01-20T08:38:34.633Z,85.50
2019-01-20T08:41:02.157Z,85.07
2019-01-20T08:43:31.967Z,85.33
2019-01-20T08:46:36.538Z,85.44
2019-01-20T08:49:04.495Z,85.26
2019-01-20T08:51:33.493Z,84.81
2019-01-20T08:54:00.753Z,85.01
2019-01-20T08:56:28.371Z,85.04
2019-01-20T08:58:56.423Z,84.96
2019-01-20T09:01:24.205Z,85.01
2019-01-20T09:03:53.859Z,84.87
2019-01-20T09:06:21.598Z,84.47
2019-01-20T09:08:49.901Z,84.40
2019-01-20T09:11:17.478Z,84.73
2019-01-20T09:13:45.809Z,83.77
2019-01-20T09:16:13.343Z,83.49
2019-01-20T09:18:41.353Z,83.30
2019-01-20T09:21:08.968Z,81.96
2019-01-20T09:23:37.043Z,82.10
2019-01-20T09:26:04.823Z,80.05
2019-01-20T09:28:32.333Z,79.94
2019-01-20T09:30:59.702Z,79.20
2019-01-20T09:33:27.185Z,78.63
2019-01-20T09:35:55.937Z,76.26
2019-01-20T09:38:24.026Z,76.30
2019-01-20T09:40:51.593Z,75.43
2019-01-20T09:43:19.137Z,74.05
2019-01-20T09:45:47.193Z,73.76
2019-01-20T09:48:15.107Z,72.69
2019-01-20T09:50:42.805Z,71.49
2019-01-20T09:53:10.491Z,71.81
2019-01-20T09:55:37.764Z,71.01
2019-01-20T09:58:11.277Z,71.30
2019-01-20T10:00:39.210Z,70.10
2019-01-20T10:03:07.279Z,68.91
2019-01-20T10:05:35.253Z,67.52
2019-01-20T10:08:04.403Z,67.70
2019-01-20T10:10:36.064Z,65.84
2019-01-20T10:13:10.387Z,64.87
2019-01-20T10:15:37.954Z,65.04
2019-01-20T10:18:08.072Z,67.56
2019-01-20T10:20:35.854Z,65.11
2019-01-20T10:23:05.000Z,64.83
2019-01-20T10:25:32.538Z,69.94
2019-01-20T10:27:59.791Z,64.83
2019-01-20T10:30:32.707Z,65.55
2019-01-20T10:33:00.811Z,68.34
2019-01-20T10:35:52.469Z,71.03
2019-01-20T10:38:22.240Z,64.80
2019-01-20T10:40:50.005Z,69.52
2019-01-20T10:43:17.717Z,61.00
2019-01-20T10:45:45.426Z,61.73
2019-01-20T10:48:13.206Z,63.13
2019-01-20T10:50:41.253Z,65.56
2019-01-20T10:53:09.319Z,65.40
2019-01-20T10:55:36.882Z,67.13
2019-01-20T10:58:07.911Z,62.23
2019-01-20T11:00:38.229Z,59.30
2019-01-20T11:03:06.615Z,55.26
2019-01-20T11:05:34.582Z,58.70
2019-01-20T11:08:02.511Z,58.39
2019-01-20T11:10:30.340Z,55.41
2019-01-20T11:12:58.915Z,58.35
2019-01-20T11:15:26.423Z,62.20
2019-01-20T11:17:54.884Z,61.92
2019-01-20T11:20:23.130Z,61.09
2019-01-20T11:22:51.261Z,59.34
2019-01-20T11:25:23.181Z,57.56
2019-01-20T11:27:50.691Z,56.81
2019-01-20T11:30:18.959Z,61.58
2019-01-20T11:32:47.065Z,63.18
2019-01-20T11:35:18.617Z,61.66
2019-01-20T11:37:47.229Z,62.15
2019-01-20T11:40:14.744Z,61.03
2019-01-20T11:42:42.846Z,61.90
2019-01-20T11:45:18.850Z,55.71
2019-01-20T11:47:47.033Z,57.63
2019-01-20T11:50:15.484Z,55.34
2019-01-20T11:52:44.133Z,55.53
2019-01-20T11:55:15.250Z,54.80
2019-01-20T11:57:43.581Z,56.94
2019-01-20T12:00:30.583Z,56.57
2019-01-20T12:03:03.185Z,61.21
2019-01-20T12:05:35.219Z,57.29
2019-01-20T12:08:05.185Z,60.12
2019-01-20T12:10:33.217Z,59.89
2019-01-20T12:13:04.210Z,55.97
2019-01-20T12:15:31.888Z,58.83
2019-01-20T12:17:59.554Z,60.83
2019-01-20T12:20:27.020Z,58.14
2019-01-20T12:22:57.439Z,61.79
2019-01-20T12:25:24.953Z,61.02
2019-01-20T12:27:52.544Z,57.90
2019-01-20T12:30:23.018Z,57.93
2019-01-20T12:32:51.099Z,59.08
2019-01-20T12:35:18.575Z,59.76
2019-01-20T12:37:46.982Z,59.91
2019-01-20T12:40:25.668Z,60.10
2019-01-20T12:42:53.458Z,61.32
2019-01-20T12:45:22.425Z,60.60
2019-01-20T12:47:50.674Z,60.38
2019-01-20T12:50:18.930Z,61.75
2019-01-20T12:52:46.802Z,61.83
2019-01-20T12:55:19.688Z,60.57
2019-01-20T12:57:47.796Z,63.96
2019-01-20T13:00:19.365Z,60.39
2019-01-20T13:02:46.995Z,61.43
2019-01-20T13:05:18.076Z,61.62
2019-01-20T13:07:46.626Z,61.58
2019-01-20T13:10:15.828Z,62.27
2019-01-20T13:12:43.895Z,61.29
2019-01-20T13:15:15.605Z,61.30
2019-01-20T13:17:43.133Z,63.76
2019-01-20T13:20:14.854Z,61.74
2019-01-20T13:22:42.357Z,62.02
2019-01-20T13:25:14.226Z,62.55
2019-01-20T13:27:42.557Z,62.02
2019-01-20T13:30:15.159Z,62.13
2019-01-20T13:32:42.938Z,65.08
2019-01-20T13:35:10.895Z,63.13
2019-01-20T13:37:42.316Z,63.32
2019-01-20T13:40:14.929Z,63.01
2019-01-20T13:42:42.634Z,62.50
2019-01-20T13:45:11.227Z,62.36
2019-01-20T13:47:48.693Z,63.25
2019-01-20T13:50:15.439Z,62.58
2019-01-20T13:52:43.294Z,67.44
2019-01-20T13:55:13.821Z,62.25
2019-01-20T13:57:41.596Z,63.18
2019-01-20T14:00:16.975Z,65.01
2019-01-20T14:02:46.972Z,62.49
2019-01-20T14:05:14.778Z,62.66
2019-01-20T14:07:44.312Z,63.63
2019-01-20T14:10:14.806Z,62.89
2019-01-20T14:12:42.074Z,65.23
2019-01-20T14:15:12.586Z,63.52
2019-01-20T14:17:40.842Z,62.97
2019-01-20T14:20:18.304Z,64.53
2019-01-20T14:22:47.810Z,64.94
2019-01-20T14:25:19.663Z,62.42
2019-01-20T14:27:47.410Z,61.92
2019-01-20T14:30:29.325Z,66.43
2019-01-20T14:32:56.789Z,64.75
2019-01-20T14:35:24.179Z,64.30
2019-01-20T14:37:52.265Z,64.51
2019-01-20T14:40:20.017Z,66.73
2019-01-20T14:42:47.621Z,64.54
2019-01-20T14:45:15.602Z,66.57
2019-01-20T14:47:43.121Z,66.32
2019-01-20T14:50:17.895Z,66.87
2019-01-20T14:52:45.582Z,66.18
2019-01-20T14:55:13.339Z,66.91
2019-01-20T14:57:40.883Z,67.40
2019-01-20T15:00:17.402Z,66.65
2019-01-20T15:02:44.841Z,68.55
2019-01-20T15:05:13.516Z,69.39
2019-01-20T15:07:41.299Z,68.66
2019-01-20T15:10:10.068Z,65.09
2019-01-20T15:12:37.716Z,67.99
2019-01-20T15:15:08.931Z,66.98
2019-01-20T15:17:36.301Z,67.67
2019-01-20T15:20:05.966Z,68.25
2019-01-20T15:22:33.865Z,70.13
2019-01-20T15:25:01.147Z,69.07
2019-01-20T15:27:28.490Z,69.45
2019-01-20T15:29:56.042Z,68.90
2019-01-20T15:32:24.434Z,69.56
2019-01-20T15:34:52.311Z,69.65
2019-01-20T15:37:20.071Z,69.19
2019-01-20T15:39:47.674Z,71.49
2019-01-20T15:42:15.914Z,70.47
2019-01-20T15:44:44.170Z,70.90
2019-01-20T15:47:12.008Z,70.64
2019-01-20T15:49:39.771Z,70.55
2019-01-20T15:52:07.266Z,69.97
2019-01-20T15:54:37.166Z,69.78
2019-01-20T15:57:04.691Z,70.52
2019-01-20T15:59:32.210Z,70.80
2019-01-20T16:01:59.728Z,71.21
2019-01-20T16:04:27.931Z,71.85
2019-01-20T16:06:55.568Z,71.78
2019-01-20T16:09:23.168Z,71.95
2019-01-20T16:11:51.168Z,72.06
2019-01-20T16:14:18.274Z,72.56
2019-01-20T16:16:45.884Z,72.56
2019-01-20T16:19:13.641Z,72.49
2019-01-20T16:21:42.681Z,73.47
2019-01-20T16:24:10.523Z,72.98
2019-01-20T16:26:39.018Z,73.49
2019-01-20T16:29:07.187Z,73.92
2019-01-20T16:31:39.774Z,74.22
2019-01-20T16:34:07.018Z,74.08
2019-01-20T16:36:34.659Z,74.41
2019-01-20T16:39:03.951Z,74.77
2019-01-20T16:41:31.188Z,74.66
2019-01-20T16:43:58.590Z,75.47
2019-01-20T16:46:26.292Z,75.48
2019-01-20T16:48:53.925Z,75.00
2019-01-20T16:51:36.443Z,76.01
2019-01-20T16:54:04.664Z,75.93
2019-01-20T16:56:32.497Z,76.66
2019-01-20T16:58:59.959Z,75.80
2019-01-20T17:01:27.424Z,75.85
2019-01-20T17:03:55.161Z,76.33
2019-01-20T17:06:23.037Z,76.15
2019-01-20T17:08:50.994Z,76.11
2019-01-20T17:11:18.254Z,76.56
2019-01-20T17:13:45.786Z,76.84
2019-01-20T17:16:13.177Z,76.80
2019-01-20T17:18:40.874Z,77.15
2019-01-20T17:21:09.543Z,77.03
2019-01-20T17:23:37.439Z,77.51
2019-01-20T17:26:05.045Z,77.61
2019-01-20T17:28:32.189Z,77.45
2019-01-20T17:30:59.806Z,78.11
2019-01-20T17:33:27.493Z,77.87
2019-01-20T17:35:55.423Z,78.34
2019-01-20T17:38:23.088Z,78.41
2019-01-20T17:40:50.725Z,78.49
2019-01-20T17:43:18.523Z,78.03
2019-01-20T17:45:48.596Z,78.41
2019-01-20T17:48:15.589Z,78.87
2019-01-20T17:50:44.242Z,78.42
2019-01-20T17:53:12.400Z,78.26
2019-01-20T17:55:40.412Z,78.68
2019-01-20T17:58:07.939Z,78.82
2019-01-20T18:00:39.136Z,79.03
2019-01-20T18:03:06.977Z,79.08
2019-01-20T18:05:35.169Z,78.70
2019-01-20T18:08:03.513Z,79.24
2019-01-20T18:10:30.979Z,78.97
2019-01-20T18:12:58.728Z,79.54
2019-01-20T18:15:26.401Z,79.47
2019-01-20T18:17:53.905Z,79.22
2019-01-20T18:20:24.338Z,80.16
2019-01-20T18:22:52.147Z,80.36
2019-01-20T18:25:20.464Z,79.90
2019-01-20T18:27:47.950Z,80.91
2019-01-20T18:30:20.453Z,80.42
2019-01-20T18:32:48.312Z,79.53
2019-01-20T18:35:15.796Z,79.32
2019-01-20T18:37:43.448Z,79.22
2019-01-20T18:40:14.612Z,79.39
2019-01-20T18:42:42.255Z,79.77
2019-01-20T18:45:12.888Z,80.48
2019-01-20T18:47:40.993Z,81.69
2019-01-20T18:50:11.415Z,80.80
2019-01-20T18:52:43.387Z,81.20
2019-01-20T18:55:12.201Z,81.06
2019-01-20T18:57:39.827Z,81.42
2019-01-20T19:00:18.758Z,81.24
2019-01-20T19:02:46.225Z,81.26
2019-01-20T19:05:14.648Z,81.74
2019-01-20T19:07:42.732Z,81.95
2019-01-20T19:10:12.497Z,81.63
2019-01-20T19:12:39.889Z,81.78
2019-01-20T19:15:09.697Z,81.96
2019-01-20T19:17:37.313Z,82.92
2019-01-20T19:20:07.708Z,83.18
2019-01-20T19:22:35.102Z,82.36
2019-01-20T19:25:05.319Z,82.20
2019-01-20T19:27:32.856Z,82.07
2019-01-20T19:30:00.877Z,82.74
2019-01-20T19:32:28.846Z,82.15
2019-01-20T19:34:56.407Z,82.24
2019-01-20T19:37:23.796Z,82.03
2019-01-20T19:39:51.845Z,82.13
2019-01-20T19:42:19.986Z,82.28
2019-01-20T19:44:47.693Z,83.15
2019-01-20T19:47:15.312Z,83.09
2019-01-20T19:49:43.789Z,83.58
2019-01-20T19:52:11.205Z,82.92
2019-01-20T19:54:38.840Z,83.32
2019-01-20T19:57:06.674Z,83.31
2019-01-20T19:59:34.029Z,82.79
2019-01-20T20:02:02.074Z,83.19
2019-01-20T20:04:29.867Z,83.32
2019-01-20T20:06:58.027Z,83.54
2019-01-20T20:09:26.320Z,83.08
2019-01-20T20:11:53.582Z,82.78
2019-01-20T20:14:21.141Z,83.15
2019-01-20T20:16:48.812Z,82.96
2019-01-20T20:19:16.058Z,83.09
2019-01-20T20:21:44.186Z,83.38
2019-01-20T20:24:11.735Z,83.18
2019-01-20T20:26:39.351Z,83.32
2019-01-20T20:29:06.906Z,83.44
2019-01-20T20:31:34.719Z,83.64
2019-01-20T20:34:02.094Z,83.78
2019-01-20T20:36:29.482Z,83.84
2019-01-20T20:38:57.413Z,83.93
2019-01-20T20:41:26.038Z,84.30
2019-01-20T20:43:53.788Z,83.48
2019-01-20T20:46:21.380Z,83.74
2019-01-20T20:48:48.640Z,83.71
2019-01-20T20:51:16.393Z,83.61
2019-01-20T20:53:44.078Z,83.53
2019-01-20T20:56:11.996Z,83.79
2019-01-20T20:58:39.825Z,83.69
2019-01-20T21:01:07.190Z,83.45
2019-01-20T21:03:37.460Z,83.54
2019-01-20T21:06:04.998Z,83.56
2019-01-20T21:08:32.897Z,84.24
2019-01-20T21:11:00.270Z,84.36
2019-01-20T21:13:27.891Z,84.14
2019-01-20T21:15:55.277Z,84.01
2019-01-20T21:18:22.649Z,84.39
2019-01-20T21:20:50.010Z,84.03
2019-01-20T21:23:19.012Z,83.71
2019-01-20T21:25:46.733Z,83.60
2019-01-20T21:28:14.599Z,83.73
2019-01-20T21:30:44.562Z,84.07
2019-01-20T21:33:12.360Z,83.78
2019-01-20T21:35:39.822Z,84.15
2019-01-20T21:38:07.393Z,84.16
2019-01-20T21:40:35.050Z,84.72
2019-01-20T21:43:03.503Z,83.97
2019-01-20T21:45:31.147Z,83.76
2019-01-20T21:47:58.659Z,83.91
2019-01-20T21:50:29.090Z,83.86
2019-01-20T21:52:57.126Z,84.16
2019-01-20T21:55:24.584Z,84.28
2019-01-20T21:57:52.621Z,84.19
2019-01-20T22:00:22.839Z,84.49
2019-01-20T22:02:50.891Z,85.03
2019-01-20T22:05:18.612Z,84.22
2019-01-20T22:07:46.850Z,84.83
2019-01-20T22:10:17.477Z,84.70
2019-01-20T22:12:44.988Z,84.42
2019-01-20T22:15:13.000Z,84.72
2019-01-20T22:17:40.618Z,84.23
2019-01-20T22:20:12.567Z,84.70
2019-01-20T22:22:40.480Z,84.51
2019-01-20T22:25:08.611Z,84.51
2019-01-20T22:27:36.031Z,84.44
2019-01-20T22:30:08.821Z,84.23
2019-01-20T22:32:35.964Z,84.14
2019-01-20T22:35:05.428Z,84.24
2019-01-20T22:37:33.403Z,84.17
2019-01-20T22:40:01.111Z,84.41
2019-01-20T22:42:28.958Z,84.08
2019-01-20T22:44:56.325Z,84.04
2019-01-20T22:47:24.093Z,84.21
2019-01-20T22:49:51.960Z,84.18
2019-01-20T22:52:19.743Z,84.08
2019-01-20T22:54:48.927Z,84.28
2019-01-20T22:57:17.564Z,84.50
2019-01-20T22:59:45.524Z,84.76
2019-01-20T23:02:13.088Z,85.58
2019-01-20T23:04:43.689Z,84.73
2019-01-20T23:07:12.308Z,84.74
2019-01-20T23:09:40.649Z,84.43
2019-01-20T23:12:08.462Z,84.22
2019-01-20T23:14:39.653Z,84.29
2019-01-20T23:17:07.919Z,84.93
2019-01-20T23:19:35.949Z,84.77
2019-01-20T23:22:04.248Z,84.15
2019-01-20T23:24:31.852Z,83.97
2019-01-20T23:26:59.431Z,84.28
2019-01-20T23:29:34.003Z,84.27
2019-01-20T23:32:11.873Z,84.35
2019-01-20T23:34:41.345Z,84.28
2019-01-20T23:37:10.253Z,84.57
2019-01-20T23:39:38.134Z,84.05
2019-01-20T23:42:05.758Z,84.11
2019-01-20T23:44:33.410Z,84.24
2019-01-20T23:47:00.665Z,84.16
2019-01-20T23:49:28.222Z,84.12
2019-01-20T23:51:55.961Z,84.18
2019-01-20T23:54:23.498Z,84.19
2019-01-20T23:56:51.232Z,84.52
2019-01-20T23:59:18.962Z,84.58
